Ainsworth, NE

12:18 AM CDT on May 23, 2018 (GMT -0500)
Ainsworth Municipal

Weather History for KANW - November, 2013

Change the Weather History Date:

Saturday, November 2, 2013

  Actual Average Record
Temperature  
Mean Temperature 44 °F -  
Max Temperature 60 °F 50 °F 80 °F (2005)
Min Temperature 29 °F 29 °F 14 °F (2002)
Degree Days  
Heating Degree Days 20    
Moisture  
Dew Point 26 °F    
Average Humidity 55    
Maximum Humidity 83    
Minimum Humidity 23    
Precipitation  
Precipitation 0.00 in - - ()
Sea Level Pressure  
Sea Level Pressure 30.05 in    
Wind  
Wind Speed 9 mph (SW)    
Max Wind Speed 21 mph    
Max Gust Speed 28 mph    
Visibility 10 miles    
Events      
Averages and records for this station are not official NWS values.
T = Trace of Precipitation, MM = Missing Value Source: NWS Daily Summary

Daily Weather History Graph

Daily Weather History Graph

Search for Another Location

Airport or City:

Astronomy

Nov. 02, 2013 Rise Set
Actual Time 8:15 AM CDT 6:31 PM CDT
Civil Twilight 7:45 AM CDT 7:00 PM CDT
Nautical Twilight 7:12 AM CDT 7:33 PM CDT
Astronomical Twilight 6:39 AM CDT 8:06 PM CDT
Moon 7:13 AM CDT (11/2) 6:04 PM CDT (11/2)
Length of Visible Light 11h 14m
Length of Day
10h 15m
Waning Crescent, 1% of the Moon is Illuminated
Nov 2
Waning Crescent
Nov 3
New
Nov 9
First Quarter
Nov 17
Full
Nov 25
Last Quarter

Hourly Weather History & Observations

Time (CDT) Temp. Windchill Dew Point Humidity Pressure Visibility Wind Dir Wind Speed Gust Speed Precip Events Conditions
12:15 AM 34.0 °F 26.6 °F 27.9 °F 78% 30.10 in 10.0 mi West 9.2 mph - N/A   Clear
12:35 AM 33.8 °F 27.7 °F 27.9 °F 79% 30.10 in 10.0 mi West 6.9 mph - N/A   Clear
12:55 AM 34.7 °F 26.9 °F 27.9 °F 76% 30.10 in 10.0 mi WNW 10.4 mph - N/A   Clear
1:15 AM 35.1 °F 27.4 °F 28.2 °F 76% 30.10 in 10.0 mi WNW 10.4 mph - N/A   Clear
1:35 AM 35.2 °F 27.6 °F 28.4 °F 76% 30.11 in 10.0 mi West 10.4 mph - N/A   Clear
1:55 AM 34.9 °F 27.1 °F 28.4 °F 77% 30.11 in 10.0 mi WNW 10.4 mph - N/A   Clear
2:15 AM 34.9 °F 27.7 °F 28.4 °F 77% 30.12 in 10.0 mi WNW 9.2 mph - N/A   Clear
2:35 AM 34.9 °F 29.0 °F 28.4 °F 77% 30.13 in 10.0 mi WNW 6.9 mph - N/A   Clear
2:55 AM 34.7 °F 29.6 °F 28.0 °F 77% 30.13 in 10.0 mi WNW 5.8 mph - N/A   Clear
3:15 AM 33.6 °F 26.8 °F 27.9 °F 79% 30.13 in 10.0 mi West 8.1 mph - N/A   Clear
3:35 AM 32.5 °F 26.2 °F 27.7 °F 82% 30.14 in 10.0 mi West 6.9 mph - N/A   Clear
3:55 AM 32.5 °F 29.3 °F 27.5 °F 82% 30.14 in 10.0 mi West 3.5 mph - N/A   Clear
4:15 AM 32.0 °F - 27.5 °F 83% 30.13 in 10.0 mi Calm Calm - N/A   Clear
4:35 AM 32.0 °F 27.5 °F 27.1 °F 82% 30.14 in 10.0 mi West 4.6 mph - N/A   Clear
4:55 AM 32.4 °F 29.1 °F 27.5 °F 82% 30.14 in 10.0 mi WSW 3.5 mph - N/A   Clear
5:15 AM 31.8 °F 28.5 °F 27.0 °F 82% 30.14 in 10.0 mi West 3.5 mph - N/A   Clear
5:35 AM 31.6 °F 27.0 °F 26.8 °F 82% 30.14 in 10.0 mi West 4.6 mph - N/A   Clear
5:55 AM 32.0 °F - 26.4 °F 80% 30.14 in 10.0 mi Calm Calm - N/A   Clear
6:15 AM 32.4 °F 27.9 °F 26.4 °F 79% 30.15 in 10.0 mi West 4.6 mph - N/A   Clear
6:35 AM 32.9 °F 28.5 °F 26.1 °F 76% 30.15 in 10.0 mi West 4.6 mph - N/A   Clear
6:55 AM 32.9 °F 27.5 °F 25.7 °F 75% 30.15 in 10.0 mi West 5.8 mph - N/A   Clear
7:15 AM 32.2 °F 26.7 °F 25.7 °F 77% 30.15 in 10.0 mi West 5.8 mph - N/A   Clear
7:35 AM 31.5 °F 25.8 °F 25.2 °F 78% 30.15 in 10.0 mi West 5.8 mph - N/A   Clear
7:55 AM 31.8 °F 26.2 °F 25.2 °F 76% 30.14 in 10.0 mi WSW 5.8 mph - N/A   Clear
8:15 AM 29.8 °F 23.9 °F 24.6 °F 81% 30.14 in 10.0 mi WSW 5.8 mph - N/A   Clear
8:35 AM 31.6 °F 27.0 °F 25.2 °F 77% 30.14 in 10.0 mi West 4.6 mph - N/A   Clear
8:55 AM 32.0 °F 25.6 °F 25.7 °F 78% 30.14 in 10.0 mi WSW 6.9 mph - N/A   Clear
9:15 AM 33.8 °F 28.6 °F 26.8 °F 75% 30.14 in 10.0 mi WSW 5.8 mph - N/A   Clear
9:35 AM 36.5 °F 29.7 °F 27.9 °F 71% 30.15 in 10.0 mi WSW 9.2 mph - N/A   Clear
9:55 AM 39.9 °F 34.5 °F 28.9 °F 65% 30.15 in 10.0 mi West 8.1 mph - N/A   Clear
10:15 AM 42.6 °F 37.8 °F 28.6 °F 58% 30.16 in 10.0 mi WSW 8.1 mph - N/A   Clear
10:35 AM 45.1 °F 42.0 °F 28.8 °F 53% 30.15 in 10.0 mi West 5.8 mph - N/A   Clear
10:55 AM 47.1 °F - 29.1 °F 50% 30.15 in 10.0 mi WSW 9.2 mph - N/A   Clear
12:15 PM 54.3 °F - 25.0 °F 32% 30.15 in 10.0 mi SW 11.5 mph - N/A   Clear
12:35 PM 55.4 °F - 23.9 °F 30% 30.14 in 10.0 mi SW 13.8 mph - N/A   Clear
12:55 PM 56.5 °F - 23.2 °F 28% 30.13 in 10.0 mi WSW 11.5 mph 17.3 mph N/A   Clear
1:15 PM 56.8 °F - 22.1 °F 26% 30.11 in 10.0 mi WSW 13.8 mph - N/A   Clear
1:35 PM 57.4 °F - 22.3 °F 26% 30.10 in 10.0 mi SSW 9.2 mph 17.3 mph N/A   Clear
1:55 PM 58.1 °F - 23.2 °F 26% 30.08 in 10.0 mi SW 10.4 mph 18.4 mph N/A   Clear
2:15 PM 59.0 °F - 22.8 °F 25% 30.07 in 10.0 mi SW 12.7 mph 18.4 mph N/A   Clear
2:35 PM 59.0 °F - 23.0 °F 25% 30.05 in 10.0 mi SSW 13.8 mph 17.3 mph N/A   Clear
2:55 PM 59.5 °F - 21.4 °F 23% 30.04 in 10.0 mi SSW 10.4 mph 16.1 mph N/A   Clear
3:15 PM 59.5 °F - 22.5 °F 24% 30.03 in 10.0 mi South 10.4 mph 19.6 mph N/A   Clear
3:35 PM 60.1 °F - 23.4 °F 24% 30.02 in 10.0 mi SSW 13.8 mph 18.4 mph N/A   Clear
3:55 PM 60.1 °F - 23.2 °F 24% 30.01 in 10.0 mi SSW 12.7 mph 16.1 mph N/A   Clear
4:15 PM 59.9 °F - 23.4 °F 25% 30.01 in 10.0 mi South 13.8 mph - N/A   Clear
4:35 PM 59.7 °F - 23.9 °F 25% 30.00 in 10.0 mi SSW 13.8 mph - N/A   Clear
4:55 PM 59.4 °F - 23.9 °F 26% 29.99 in 10.0 mi South 9.2 mph - N/A   Clear
5:15 PM 58.8 °F - 24.1 °F 26% 29.99 in 10.0 mi South 10.4 mph - N/A   Clear
5:35 PM 57.6 °F - 25.3 °F 29% 29.98 in 10.0 mi South 9.2 mph - N/A   Clear
5:55 PM 55.9 °F - 24.8 °F 30% 29.97 in 10.0 mi South 9.2 mph - N/A   Clear
6:15 PM 53.4 °F - 25.3 °F 34% 29.96 in 10.0 mi South 8.1 mph - N/A   Clear
6:35 PM 49.8 °F - 26.1 °F 40% 29.95 in 10.0 mi SSE 9.2 mph - N/A   Clear
6:55 PM 49.8 °F - 26.1 °F 40% 29.94 in 10.0 mi SSE 10.4 mph - N/A   Clear
7:15 PM 49.8 °F - 25.7 °F 39% 29.92 in 10.0 mi SSE 10.4 mph - N/A   Clear
7:35 PM 47.7 °F - 26.4 °F 44% 29.93 in 10.0 mi SSE 11.5 mph - N/A   Clear
7:55 PM 47.8 °F - 26.1 °F 43% 29.92 in 10.0 mi SSE 12.7 mph - N/A   Clear
8:15 PM 47.5 °F - 26.1 °F 43% 29.91 in 10.0 mi SSE 12.7 mph - N/A   Clear
8:35 PM 47.5 °F - 25.9 °F 43% 29.91 in 10.0 mi SSE 13.8 mph - N/A   Clear
8:55 PM 47.5 °F - 26.2 °F 44% 29.89 in 10.0 mi SSE 17.3 mph - N/A   Clear
9:15 PM 46.6 °F - 26.2 °F 45% 29.89 in 10.0 mi SSE 16.1 mph 21.9 mph N/A   Clear
9:35 PM 46.6 °F - 26.2 °F 45% 29.87 in 10.0 mi SSE 17.3 mph 24.2 mph N/A   Clear
9:55 PM 46.4 °F 39.5 °F 26.6 °F 46% 29.87 in 10.0 mi SSE 17.3 mph - N/A   Clear
10:15 PM 46.0 °F 39.0 °F 27.0 °F 47% 29.87 in 10.0 mi SSE 17.3 mph - N/A   Clear
10:35 PM 45.5 °F 39.6 °F 27.1 °F 49% 29.86 in 10.0 mi SSE 12.7 mph - N/A   Clear
10:55 PM 44.6 °F 38.1 °F 27.3 °F 51% 29.85 in 10.0 mi SSE 13.8 mph - N/A   Clear
11:15 PM 44.8 °F 37.7 °F 27.5 °F 51% 29.84 in 10.0 mi SSE 16.1 mph 23.0 mph N/A   Clear
11:35 PM 46.0 °F 39.0 °F 27.3 °F 48% 29.82 in 10.0 mi SSE 17.3 mph 23.0 mph N/A   Clear
11:55 PM 46.0 °F 38.3 °F 27.3 °F 48% 29.81 in 10.0 mi South 20.7 mph 27.6 mph N/A   Clear